Impacts METAR Board
IDs:

KDEN - Denver Intl, CO, US

Updated at: 1600 UTC 22 Sep 2019
Potential Impact None Slight Moderate High
Time 22/04Z 22/05Z 22/06Z 22/07Z 22/08Z 22/09Z 22/10Z 22/11Z 22/12Z 22/13Z 22/14Z 22/15Z 22/16Z
Temp51 52 51 50 49 46 43 43 41 40 46 55 60
Dewpt45 47 47 47 47 45 42 41 39 39 42 43 38
Altim30.11 30.13 30.11 30.10 30.11 30.10 30.11 30.11 30.11 30.12 30.13 30.13 30.13
VIS10 10 10 10 10 10 10 10 10 10 10 10 10
CIG70 65 90 110 160 -- -- -- -- -- -- -- --
CoverOVCOVCOVCOVCBKNFEWCLRCLRFEWFEWFEWFEWFEW
FltCatVFRVFRVFRVFRVFRVFRVFRVFRVFRVFRVFRVFRVFR
WX---RA-RA--------------------
WDir40300280140250170200160170170160190190
WSpd13 21 8 5 4 8 5 7 6 9 8 12 7
WGst-- 25 -- -- -- -- -- -- -- -- -- -- --
Raw hourly METARs
KDEN 220353Z 04013KT 10SM BKN070 OVC110 11/07 A3011 RMK AO2 PK WND 03035/0258 RAB16E42 SLP142 P0000 T01060072
KDEN 220453Z 30021G25KT 10SM -RA FEW018 BKN065 OVC120 11/08 A3013 RMK AO2 RAB0356E18B50 SLP142 P0001 T01110083
KDEN 220553Z 28008KT 10SM -RA SCT065 OVC090 11/08 A3011 RMK AO2 WSHFT 0450 SLP136 P0000 60001 T01060083 10211 20100 50012
KDEN 220653Z 14005KT 10SM SCT044 BKN110 OVC150 10/08 A3010 RMK AO2 RAE31 SLP132 VCSH P0000 T01000083 402670078
KDEN 220753Z 25004KT 10SM FEW100 BKN160 09/08 A3011 RMK AO2 SLP131 T00940083
KDEN 220853Z 17008KT 10SM FEW080 08/07 A3010 RMK AO2 SLP133 60000 T00780072 56004
KDEN 220953Z 20005KT 10SM CLR 06/06 A3011 RMK AO2 SLP137 T00610056
KDEN 221053Z 16007KT 10SM CLR 06/05 A3011 RMK AO2 SLP141 T00610050
KDEN 221153Z 17006KT 10SM FEW220 05/04 A3011 RMK AO2 SLP151 60000 70001 T00500039 10106 20044 51004
KDEN 221253Z 17009KT 10SM FEW220 04/04 A3012 RMK AO2 SLP158 T00440039
KDEN 221353Z 16008KT 10SM FEW100 08/06 A3013 RMK AO2 SLP159 T00780056
KDEN 221453Z 19012KT 10SM FEW100 13/06 A3013 RMK AO2 SLP155 T01280061 50003
KDEN 221553Z 19007KT 10SM FEW100 16/03 A3013 RMK AO2 SLP155 T01560033



Page loaded:  16:33 UTC  |   09:33 AM Pacific  |   10:33 AM Mountain  |   11:33 AM Central  |   12:33 PM Eastern

 

ADVISORIES

FORECASTS

FORECASTS

OBSERVATIONS

USER TOOLS

ABOUT US